sensor_id;sensor_type;location;lat;lon;timestamp;pressure;altitude;pressure_sealevel;temperature;humidity
66801;BME280;53703;50.326;19.122;2023-03-03T00:00:58;98951.67;;;18.11;38.51
66801;BME280;53703;50.326;19.122;2023-03-03T00:03:51;98946.22;;;18.11;38.47
66801;BME280;53703;50.326;19.122;2023-03-03T00:06:46;98948.45;;;18.11;38.48
66801;BME280;53703;50.326;19.122;2023-03-03T00:09:39;98946.08;;;18.11;38.36
66801;BME280;53703;50.326;19.122;2023-03-03T00:12:35;98941.56;;;18.11;38.55
66801;BME280;53703;50.326;19.122;2023-03-03T00:15:36;98939.67;;;18.11;38.43
66801;BME280;53703;50.326;19.122;2023-03-03T00:18:35;98932.09;;;18.09;38.45
66801;BME280;53703;50.326;19.122;2023-03-03T00:21:31;98931.33;;;18.07;38.46
66801;BME280;53703;50.326;19.122;2023-03-03T00:24:34;98926.56;;;18.06;38.59
66801;BME280;53703;50.326;19.122;2023-03-03T00:27:34;98925.09;;;18.07;38.48
66801;BME280;53703;50.326;19.122;2023-03-03T00:30:29;98921.55;;;18.11;38.45
66801;BME280;53703;50.326;19.122;2023-03-03T00:33:31;98924.58;;;18.08;38.57
66801;BME280;53703;50.326;19.122;2023-03-03T00:36:34;98928.09;;;18.05;38.54
66801;BME280;53703;50.326;19.122;2023-03-03T00:39:34;98929.13;;;18.07;38.46
66801;BME280;53703;50.326;19.122;2023-03-03T00:42:29;98930.04;;;18.06;38.54
66801;BME280;53703;50.326;19.122;2023-03-03T00:45:40;98929.55;;;18.06;38.58
66801;BME280;53703;50.326;19.122;2023-03-03T00:48:43;98932.16;;;18.08;38.45
66801;BME280;53703;50.326;19.122;2023-03-03T00:51:37;98929.73;;;18.09;38.58
66801;BME280;53703;50.326;19.122;2023-03-03T00:54:31;98926.69;;;18.05;38.53
66801;BME280;53703;50.326;19.122;2023-03-03T00:57:24;98929.65;;;18.04;38.58
66801;BME280;53703;50.326;19.122;2023-03-03T01:00:19;98929.48;;;18.04;38.59
66801;BME280;53703;50.326;19.122;2023-03-03T01:03:17;98931.34;;;18.05;38.55
66801;BME280;53703;50.326;19.122;2023-03-03T01:06:12;98925.58;;;18.05;38.64
66801;BME280;53703;50.326;19.122;2023-03-03T01:09:06;98923.20;;;18.07;38.41
66801;BME280;53703;50.326;19.122;2023-03-03T01:12:00;98918.73;;;18.05;38.65
66801;BME280;53703;50.326;19.122;2023-03-03T01:14:54;98915.33;;;18.05;38.52
66801;BME280;53703;50.326;19.122;2023-03-03T01:17:48;98911.16;;;18.06;38.41
66801;BME280;53703;50.326;19.122;2023-03-03T01:20:42;98906.65;;;18.08;38.49
66801;BME280;53703;50.326;19.122;2023-03-03T01:23:36;98904.56;;;18.06;38.49
66801;BME280;53703;50.326;19.122;2023-03-03T01:26:30;98900.26;;;18.05;38.60
66801;BME280;53703;50.326;19.122;2023-03-03T01:29:24;98894.88;;;18.07;38.30
66801;BME280;53703;50.326;19.122;2023-03-03T01:32:17;98893.30;;;18.03;38.52
66801;BME280;53703;50.326;19.122;2023-03-03T01:35:11;98889.80;;;18.02;38.53
66801;BME280;53703;50.326;19.122;2023-03-03T01:38:05;98886.27;;;18.02;38.47
66801;BME280;53703;50.326;19.122;2023-03-03T01:41:00;98883.96;;;18.02;38.49
66801;BME280;53703;50.326;19.122;2023-03-03T01:43:54;98878.95;;;18.00;38.47
66801;BME280;53703;50.326;19.122;2023-03-03T01:46:54;98871.47;;;17.98;38.61
66801;BME280;53703;50.326;19.122;2023-03-03T01:49:57;98871.05;;;18.00;38.43
66801;BME280;53703;50.326;19.122;2023-03-03T01:52:51;98875.95;;;18.01;38.58
66801;BME280;53703;50.326;19.122;2023-03-03T01:55:47;98875.35;;;17.99;38.47
66801;BME280;53703;50.326;19.122;2023-03-03T01:58:45;98871.39;;;17.99;38.43
66801;BME280;53703;50.326;19.122;2023-03-03T02:01:43;98868.92;;;17.98;38.48
66801;BME280;53703;50.326;19.122;2023-03-03T02:04:39;98863.59;;;17.97;38.37
66801;BME280;53703;50.326;19.122;2023-03-03T02:07:33;98866.70;;;17.98;38.53
66801;BME280;53703;50.326;19.122;2023-03-03T02:10:28;98871.55;;;17.99;38.42
66801;BME280;53703;50.326;19.122;2023-03-03T02:13:22;98872.70;;;17.98;38.41
66801;BME280;53703;50.326;19.122;2023-03-03T02:16:16;98870.64;;;17.97;38.50
66801;BME280;53703;50.326;19.122;2023-03-03T02:19:37;98870.34;;;17.95;38.37
66801;BME280;53703;50.326;19.122;2023-03-03T02:22:43;98872.98;;;17.94;38.45
66801;BME280;53703;50.326;19.122;2023-03-03T02:25:52;98873.07;;;17.92;38.56
66801;BME280;53703;50.326;19.122;2023-03-03T02:28:48;98877.76;;;17.93;38.44
66801;BME280;53703;50.326;19.122;2023-03-03T02:31:43;98880.25;;;17.92;38.38
66801;BME280;53703;50.326;19.122;2023-03-03T02:34:49;98881.64;;;17.92;38.51
66801;BME280;53703;50.326;19.122;2023-03-03T02:37:43;98881.57;;;17.91;38.38
66801;BME280;53703;50.326;19.122;2023-03-03T02:40:41;98879.60;;;17.92;38.32
66801;BME280;53703;50.326;19.122;2023-03-03T02:43:45;98877.86;;;17.91;38.42
66801;BME280;53703;50.326;19.122;2023-03-03T02:46:43;98874.89;;;17.92;38.25
66801;BME280;53703;50.326;19.122;2023-03-03T02:49:38;98877.60;;;17.88;38.38
66801;BME280;53703;50.326;19.122;2023-03-03T02:52:32;98877.88;;;17.87;38.35
66801;BME280;53703;50.326;19.122;2023-03-03T02:55:26;98883.94;;;17.87;38.24
66801;BME280;53703;50.326;19.122;2023-03-03T02:58:19;98879.55;;;17.85;38.43
66801;BME280;53703;50.326;19.122;2023-03-03T03:01:13;98875.69;;;17.88;38.18
66801;BME280;53703;50.326;19.122;2023-03-03T03:04:11;98878.11;;;17.89;38.25
66801;BME280;53703;50.326;19.122;2023-03-03T03:07:05;98886.06;;;17.87;38.27
66801;BME280;53703;50.326;19.122;2023-03-03T03:09:59;98886.23;;;17.87;38.09
66801;BME280;53703;50.326;19.122;2023-03-03T03:12:53;98877.89;;;17.88;38.01
66801;BME280;53703;50.326;19.122;2023-03-03T03:15:48;98879.01;;;17.85;38.22
66801;BME280;53703;50.326;19.122;2023-03-03T03:18:42;98878.90;;;17.82;38.36
66801;BME280;53703;50.326;19.122;2023-03-03T03:21:36;98875.98;;;17.87;38.36
66801;BME280;53703;50.326;19.122;2023-03-03T03:24:29;98878.25;;;17.82;38.45
66801;BME280;53703;50.326;19.122;2023-03-03T03:27:23;98874.91;;;17.86;38.47
66801;BME280;53703;50.326;19.122;2023-03-03T03:30:18;98877.93;;;17.84;38.26
66801;BME280;53703;50.326;19.122;2023-03-03T03:33:12;98873.50;;;17.84;38.14
66801;BME280;53703;50.326;19.122;2023-03-03T03:36:07;98863.09;;;17.82;38.33
66801;BME280;53703;50.326;19.122;2023-03-03T03:39:01;98866.32;;;17.84;38.14
66801;BME280;53703;50.326;19.122;2023-03-03T03:41:57;98871.23;;;17.84;38.12
66801;BME280;53703;50.326;19.122;2023-03-03T03:44:51;98862.04;;;17.83;38.13
66801;BME280;53703;50.326;19.122;2023-03-03T03:47:45;98854.78;;;17.81;38.12
66801;BME280;53703;50.326;19.122;2023-03-03T03:50:39;98854.65;;;17.81;38.16
66801;BME280;53703;50.326;19.122;2023-03-03T03:53:33;98860.43;;;17.79;38.06
66801;BME280;53703;50.326;19.122;2023-03-03T03:56:26;98864.52;;;17.79;38.17
66801;BME280;53703;50.326;19.122;2023-03-03T03:59:20;98870.81;;;17.79;38.14
66801;BME280;53703;50.326;19.122;2023-03-03T04:02:14;98870.98;;;17.82;38.02
66801;BME280;53703;50.326;19.122;2023-03-03T04:05:09;98870.27;;;17.79;38.06
66801;BME280;53703;50.326;19.122;2023-03-03T04:08:04;98872.36;;;17.77;38.15
66801;BME280;53703;50.326;19.122;2023-03-03T04:10:58;98874.66;;;17.76;38.21
66801;BME280;53703;50.326;19.122;2023-03-03T04:13:52;98877.38;;;17.79;37.99
66801;BME280;53703;50.326;19.122;2023-03-03T04:16:45;98866.65;;;17.77;37.99
66801;BME280;53703;50.326;19.122;2023-03-03T04:19:39;98869.59;;;17.77;38.08
66801;BME280;53703;50.326;19.122;2023-03-03T04:22:33;98865.88;;;17.77;37.86
66801;BME280;53703;50.326;19.122;2023-03-03T04:25:27;98862.18;;;17.75;37.94
66801;BME280;53703;50.326;19.122;2023-03-03T04:28:21;98863.34;;;17.77;37.92
66801;BME280;53703;50.326;19.122;2023-03-03T04:31:16;98866.95;;;17.76;37.94
66801;BME280;53703;50.326;19.122;2023-03-03T04:34:11;98862.08;;;17.77;37.82
66801;BME280;53703;50.326;19.122;2023-03-03T04:37:05;98868.52;;;17.78;37.88
66801;BME280;53703;50.326;19.122;2023-03-03T04:39:59;98874.38;;;17.77;37.82
66801;BME280;53703;50.326;19.122;2023-03-03T04:42:48;98876.17;;;17.76;37.82
66801;BME280;53703;50.326;19.122;2023-03-03T04:45:43;98879.77;;;17.77;37.70
66801;BME280;53703;50.326;19.122;2023-03-03T04:48:36;98878.31;;;17.76;37.73
66801;BME280;53703;50.326;19.122;2023-03-03T04:51:30;98881.95;;;17.77;37.64
66801;BME280;53703;50.326;19.122;2023-03-03T04:54:24;98877.05;;;17.74;37.70
66801;BME280;53703;50.326;19.122;2023-03-03T04:57:18;98865.55;;;17.74;37.83
66801;BME280;53703;50.326;19.122;2023-03-03T05:00:14;98860.67;;;17.75;37.69
66801;BME280;53703;50.326;19.122;2023-03-03T05:03:09;98869.31;;;17.74;37.68
66801;BME280;53703;50.326;19.122;2023-03-03T05:06:03;98876.20;;;17.74;37.74
66801;BME280;53703;50.326;19.122;2023-03-03T05:08:57;98885.28;;;17.73;37.70
66801;BME280;53703;50.326;19.122;2023-03-03T05:11:51;98897.52;;;17.73;37.73
66801;BME280;53703;50.326;19.122;2023-03-03T05:14:45;98896.16;;;17.72;37.83
66801;BME280;53703;50.326;19.122;2023-03-03T05:17:39;98898.16;;;17.73;37.76
66801;BME280;53703;50.326;19.122;2023-03-03T05:20:32;98897.29;;;17.73;37.87
66801;BME280;53703;50.326;19.122;2023-03-03T05:23:26;98899.93;;;17.72;37.83
66801;BME280;53703;50.326;19.122;2023-03-03T05:26:20;98901.89;;;17.72;37.74
66801;BME280;53703;50.326;19.122;2023-03-03T05:29:14;98896.33;;;17.71;37.80
66801;BME280;53703;50.326;19.122;2023-03-03T05:32:08;98900.90;;;17.70;37.79
66801;BME280;53703;50.326;19.122;2023-03-03T05:35:01;98904.38;;;17.69;37.97
66801;BME280;53703;50.326;19.122;2023-03-03T05:37:48;98909.89;;;17.66;38.02
66801;BME280;53703;50.326;19.122;2023-03-03T05:40:42;98910.33;;;17.69;37.94
66801;BME280;53703;50.326;19.122;2023-03-03T05:43:36;98913.65;;;17.67;38.04
66801;BME280;53703;50.326;19.122;2023-03-03T05:46:30;98920.81;;;17.72;38.17
66801;BME280;53703;50.326;19.122;2023-03-03T05:49:24;98931.12;;;17.77;38.09
66801;BME280;53703;50.326;19.122;2023-03-03T05:52:17;98929.20;;;17.75;38.26
66801;BME280;53703;50.326;19.122;2023-03-03T05:55:12;98926.66;;;17.70;38.14
66801;BME280;53703;50.326;19.122;2023-03-03T05:58:06;98931.31;;;17.70;38.13
66801;BME280;53703;50.326;19.122;2023-03-03T06:01:00;98932.56;;;17.69;38.04
66801;BME280;53703;50.326;19.122;2023-03-03T06:03:54;98934.02;;;17.66;38.12
66801;BME280;53703;50.326;19.122;2023-03-03T06:06:48;98943.77;;;17.69;38.18
66801;BME280;53703;50.326;19.122;2023-03-03T06:09:42;98944.95;;;17.63;38.14
66801;BME280;53703;50.326;19.122;2023-03-03T06:12:36;98951.05;;;17.68;38.06
66801;BME280;53703;50.326;19.122;2023-03-03T06:15:14;98949.42;;;17.71;37.91
66801;BME280;53703;50.326;19.122;2023-03-03T06:18:08;98952.93;;;17.70;37.89
66801;BME280;53703;50.326;19.122;2023-03-03T06:21:02;98951.14;;;17.68;37.85
66801;BME280;53703;50.326;19.122;2023-03-03T06:23:56;98944.00;;;17.68;37.93
66801;BME280;53703;50.326;19.122;2023-03-03T06:26:40;98947.73;;;17.66;38.04
66801;BME280;53703;50.326;19.122;2023-03-03T06:29:33;98952.66;;;17.67;37.81
66801;BME280;53703;50.326;19.122;2023-03-03T06:32:27;98954.05;;;17.66;37.93
66801;BME280;53703;50.326;19.122;2023-03-03T06:35:21;98947.68;;;17.64;37.85
66801;BME280;53703;50.326;19.122;2023-03-03T06:38:15;98958.20;;;17.65;37.91
66801;BME280;53703;50.326;19.122;2023-03-03T06:41:09;98961.65;;;17.62;37.97
66801;BME280;53703;50.326;19.122;2023-03-03T06:44:03;98965.67;;;17.64;37.84
66801;BME280;53703;50.326;19.122;2023-03-03T06:46:56;98959.45;;;17.61;37.77
66801;BME280;53703;50.326;19.122;2023-03-03T06:49:50;98963.40;;;17.56;38.13
66801;BME280;53703;50.326;19.122;2023-03-03T06:52:44;98955.34;;;17.58;38.21
66801;BME280;53703;50.326;19.122;2023-03-03T06:55:38;98950.55;;;17.60;38.23
66801;BME280;53703;50.326;19.122;2023-03-03T06:58:35;98952.70;;;17.61;38.04
66801;BME280;53703;50.326;19.122;2023-03-03T07:01:32;98963.80;;;17.61;37.89
66801;BME280;53703;50.326;19.122;2023-03-03T07:04:31;98958.80;;;17.58;37.95
66801;BME280;53703;50.326;19.122;2023-03-03T07:07:27;98945.48;;;17.60;38.10
66801;BME280;53703;50.326;19.122;2023-03-03T07:10:26;98938.88;;;17.58;37.99
66801;BME280;53703;50.326;19.122;2023-03-03T07:13:23;98934.23;;;17.58;37.95
66801;BME280;53703;50.326;19.122;2023-03-03T07:16:18;98942.90;;;17.61;37.99
66801;BME280;53703;50.326;19.122;2023-03-03T07:19:22;98948.61;;;17.59;37.96
66801;BME280;53703;50.326;19.122;2023-03-03T07:22:23;98949.90;;;17.53;37.98
66801;BME280;53703;50.326;19.122;2023-03-03T07:25:28;98971.42;;;17.56;37.94
66801;BME280;53703;50.326;19.122;2023-03-03T07:28:26;98972.48;;;17.52;38.07
66801;BME280;53703;50.326;19.122;2023-03-03T07:31:30;98968.63;;;17.52;37.97
66801;BME280;53703;50.326;19.122;2023-03-03T07:34:37;98966.39;;;17.53;38.11
66801;BME280;53703;50.326;19.122;2023-03-03T07:37:38;98964.29;;;17.48;38.25
66801;BME280;53703;50.326;19.122;2023-03-03T07:40:39;98967.95;;;17.49;38.12
66801;BME280;53703;50.326;19.122;2023-03-03T07:43:37;98967.47;;;17.52;38.04
66801;BME280;53703;50.326;19.122;2023-03-03T07:46:41;98962.94;;;17.49;38.16
66801;BME280;53703;50.326;19.122;2023-03-03T07:49:37;98966.18;;;17.50;38.20
66801;BME280;53703;50.326;19.122;2023-03-03T07:52:40;98986.88;;;17.67;38.46
66801;BME280;53703;50.326;19.122;2023-03-03T07:55:37;99004.48;;;17.54;38.55
66801;BME280;53703;50.326;19.122;2023-03-03T07:58:38;99010.20;;;17.42;39.18
66801;BME280;53703;50.326;19.122;2023-03-03T08:01:42;98997.04;;;17.53;38.79
66801;BME280;53703;50.326;19.122;2023-03-03T08:04:41;98986.29;;;17.48;38.48
66801;BME280;53703;50.326;19.122;2023-03-03T08:07:38;98986.77;;;17.35;38.56
66801;BME280;53703;50.326;19.122;2023-03-03T08:10:39;98986.84;;;17.41;38.74
66801;BME280;53703;50.326;19.122;2023-03-03T08:13:28;98979.94;;;17.51;38.17
66801;BME280;53703;50.326;19.122;2023-03-03T08:16:37;98974.20;;;17.38;38.39
66801;BME280;53703;50.326;19.122;2023-03-03T08:19:32;98979.93;;;17.42;38.33
66801;BME280;53703;50.326;19.122;2023-03-03T08:22:33;98974.73;;;17.56;38.19
66801;BME280;53703;50.326;19.122;2023-03-03T08:25:27;98969.93;;;17.60;38.02
66801;BME280;53703;50.326;19.122;2023-03-03T08:28:22;98972.16;;;17.50;38.23
66801;BME280;53703;50.326;19.122;2023-03-03T08:31:16;98985.93;;;17.56;38.20
66801;BME280;53703;50.326;19.122;2023-03-03T08:34:29;98993.78;;;17.46;38.36
66801;BME280;53703;50.326;19.122;2023-03-03T08:37:23;99008.02;;;17.58;38.22
66801;BME280;53703;50.326;19.122;2023-03-03T08:40:17;99011.70;;;17.44;38.21
66801;BME280;53703;50.326;19.122;2023-03-03T08:43:11;99016.11;;;17.38;38.16
66801;BME280;53703;50.326;19.122;2023-03-03T08:46:08;99011.69;;;17.44;38.21
66801;BME280;53703;50.326;19.122;2023-03-03T08:49:03;99002.69;;;17.44;38.29
66801;BME280;53703;50.326;19.122;2023-03-03T08:52:11;98996.27;;;17.54;38.39
66801;BME280;53703;50.326;19.122;2023-03-03T08:55:05;98999.00;;;17.58;38.38
66801;BME280;53703;50.326;19.122;2023-03-03T08:58:00;98999.90;;;17.56;38.59
66801;BME280;53703;50.326;19.122;2023-03-03T09:00:53;98991.46;;;17.62;39.04
66801;BME280;53703;50.326;19.122;2023-03-03T09:03:47;98979.29;;;17.68;39.56
66801;BME280;53703;50.326;19.122;2023-03-03T09:06:41;98983.93;;;17.66;39.12
66801;BME280;53703;50.326;19.122;2023-03-03T09:09:34;98986.08;;;17.66;40.11
66801;BME280;53703;50.326;19.122;2023-03-03T09:12:34;98979.20;;;17.57;39.40
66801;BME280;53703;50.326;19.122;2023-03-03T09:15:30;98983.48;;;17.64;39.76
66801;BME280;53703;50.326;19.122;2023-03-03T09:18:34;98979.34;;;17.49;39.91
66801;BME280;53703;50.326;19.122;2023-03-03T09:21:31;98986.23;;;17.46;39.78
66801;BME280;53703;50.326;19.122;2023-03-03T09:24:29;98985.64;;;17.60;39.68
66801;BME280;53703;50.326;19.122;2023-03-03T09:27:28;98988.35;;;17.50;39.82
66801;BME280;53703;50.326;19.122;2023-03-03T09:30:37;98983.23;;;17.42;39.48
66801;BME280;53703;50.326;19.122;2023-03-03T09:33:42;98980.82;;;17.39;39.49
66801;BME280;53703;50.326;19.122;2023-03-03T09:36:38;98978.86;;;17.37;39.49
66801;BME280;53703;50.326;19.122;2023-03-03T09:39:36;98984.19;;;17.38;39.36
66801;BME280;53703;50.326;19.122;2023-03-03T09:42:50;98985.69;;;17.36;39.34
66801;BME280;53703;50.326;19.122;2023-03-03T09:46:00;98987.02;;;17.35;39.31
66801;BME280;53703;50.326;19.122;2023-03-03T09:49:08;98992.13;;;17.33;39.33
66801;BME280;53703;50.326;19.122;2023-03-03T09:52:23;98994.64;;;17.31;39.35
66801;BME280;53703;50.326;19.122;2023-03-03T09:55:33;99002.56;;;17.32;39.04
66801;BME280;53703;50.326;19.122;2023-03-03T09:58:44;98999.46;;;17.29;39.08
66801;BME280;53703;50.326;19.122;2023-03-03T10:01:54;98992.70;;;17.27;39.23
66801;BME280;53703;50.326;19.122;2023-03-03T10:08:27;98985.17;;;17.22;39.26
66801;BME280;53703;50.326;19.122;2023-03-03T10:11:33;98984.84;;;17.23;39.54
66801;BME280;53703;50.326;19.122;2023-03-03T10:14:49;99003.52;;;17.25;39.08
66801;BME280;53703;50.326;19.122;2023-03-03T10:18:01;99014.02;;;17.22;39.03
66801;BME280;53703;50.326;19.122;2023-03-03T10:21:06;99017.80;;;17.15;39.19
66801;BME280;53703;50.326;19.122;2023-03-03T10:24:13;99019.80;;;17.22;39.23
66801;BME280;53703;50.326;19.122;2023-03-03T10:27:32;99015.70;;;17.22;39.27
66801;BME280;53703;50.326;19.122;2023-03-03T10:30:39;99016.67;;;17.23;39.02
66801;BME280;53703;50.326;19.122;2023-03-03T10:34:01;99011.56;;;17.30;39.03
66801;BME280;53703;50.326;19.122;2023-03-03T10:37:23;99016.02;;;17.36;40.39
66801;BME280;53703;50.326;19.122;2023-03-03T10:40:27;99018.59;;;17.26;40.75
66801;BME280;53703;50.326;19.122;2023-03-03T10:43:44;99017.75;;;17.48;40.24
66801;BME280;53703;50.326;19.122;2023-03-03T10:47:02;99016.35;;;17.23;40.48
66801;BME280;53703;50.326;19.122;2023-03-03T10:50:11;99023.06;;;17.19;40.27
66801;BME280;53703;50.326;19.122;2023-03-03T10:53:21;99017.86;;;17.15;39.97
66801;BME280;53703;50.326;19.122;2023-03-03T10:56:33;99018.04;;;17.13;40.01
66801;BME280;53703;50.326;19.122;2023-03-03T10:59:57;99012.42;;;17.23;39.68
66801;BME280;53703;50.326;19.122;2023-03-03T11:03:21;99010.70;;;17.17;39.15
66801;BME280;53703;50.326;19.122;2023-03-03T11:06:07;99008.20;;;17.24;40.19
66801;BME280;53703;50.326;19.122;2023-03-03T11:09:17;99006.06;;;17.24;40.41
66801;BME280;53703;50.326;19.122;2023-03-03T11:12:30;99010.10;;;17.16;40.49
66801;BME280;53703;50.326;19.122;2023-03-03T11:15:54;99007.23;;;17.17;40.16
66801;BME280;53703;50.326;19.122;2023-03-03T11:19:06;98997.77;;;17.17;39.77
66801;BME280;53703;50.326;19.122;2023-03-03T11:22:18;98994.56;;;17.12;39.81
66801;BME280;53703;50.326;19.122;2023-03-03T11:25:31;98997.16;;;17.11;39.65
66801;BME280;53703;50.326;19.122;2023-03-03T11:28:51;99000.11;;;17.06;39.62
66801;BME280;53703;50.326;19.122;2023-03-03T11:31:54;98998.91;;;17.04;39.63
66801;BME280;53703;50.326;19.122;2023-03-03T11:34:59;98993.19;;;17.04;39.69
66801;BME280;53703;50.326;19.122;2023-03-03T11:38:12;98992.67;;;16.99;39.71
66801;BME280;53703;50.326;19.122;2023-03-03T11:41:19;98993.01;;;16.96;39.69
66801;BME280;53703;50.326;19.122;2023-03-03T11:44:23;98991.98;;;16.98;39.62
66801;BME280;53703;50.326;19.122;2023-03-03T11:47:23;98996.92;;;16.98;39.70
66801;BME280;53703;50.326;19.122;2023-03-03T11:50:18;98997.73;;;16.97;39.67
66801;BME280;53703;50.326;19.122;2023-03-03T11:53:28;98991.59;;;16.94;39.58
66801;BME280;53703;50.326;19.122;2023-03-03T11:56:29;98989.33;;;16.95;39.54
66801;BME280;53703;50.326;19.122;2023-03-03T11:59:59;98989.55;;;16.96;39.62
66801;BME280;53703;50.326;19.122;2023-03-03T12:03:25;98985.66;;;17.12;39.49
66801;BME280;53703;50.326;19.122;2023-03-03T12:06:30;98987.66;;;17.03;39.50
66801;BME280;53703;50.326;19.122;2023-03-03T12:09:38;98992.20;;;16.92;39.64
66801;BME280;53703;50.326;19.122;2023-03-03T12:12:22;98991.61;;;17.12;39.69
66801;BME280;53703;50.326;19.122;2023-03-03T12:15:29;98989.52;;;17.03;39.63
66801;BME280;53703;50.326;19.122;2023-03-03T12:18:50;98989.19;;;17.01;39.39
66801;BME280;53703;50.326;19.122;2023-03-03T12:22:00;98988.93;;;16.89;39.51
66801;BME280;53703;50.326;19.122;2023-03-03T12:25:23;98984.02;;;16.90;39.43
66801;BME280;53703;50.326;19.122;2023-03-03T12:28:21;98982.00;;;16.87;39.70
66801;BME280;53703;50.326;19.122;2023-03-03T12:31:31;98977.38;;;16.84;39.71
66801;BME280;53703;50.326;19.122;2023-03-03T12:34:33;98975.06;;;16.93;39.62
66801;BME280;53703;50.326;19.122;2023-03-03T12:37:49;98973.80;;;17.17;39.29
66801;BME280;53703;50.326;19.122;2023-03-03T12:41:06;98969.80;;;17.09;39.52
66801;BME280;53703;50.326;19.122;2023-03-03T12:44:11;98973.16;;;17.14;40.21
66801;BME280;53703;50.326;19.122;2023-03-03T12:47:15;98970.54;;;17.27;39.35
66801;BME280;53703;50.326;19.122;2023-03-03T12:50:29;98964.67;;;17.45;39.03
66801;BME280;53703;50.326;19.122;2023-03-03T12:57:08;98958.38;;;17.89;39.55
66801;BME280;53703;50.326;19.122;2023-03-03T13:00:25;98957.23;;;17.90;40.01
66801;BME280;53703;50.326;19.122;2023-03-03T13:03:31;98957.19;;;18.07;40.56
66801;BME280;53703;50.326;19.122;2023-03-03T13:06:50;98955.90;;;18.13;40.86
66801;BME280;53703;50.326;19.122;2023-03-03T13:10:01;98953.55;;;18.08;41.56
66801;BME280;53703;50.326;19.122;2023-03-03T13:13:02;98949.86;;;18.11;41.37
66801;BME280;53703;50.326;19.122;2023-03-03T13:16:04;98951.74;;;18.15;42.37
66801;BME280;53703;50.326;19.122;2023-03-03T13:19:12;98950.85;;;18.20;42.32
66801;BME280;53703;50.326;19.122;2023-03-03T13:22:14;98954.56;;;18.24;42.18
66801;BME280;53703;50.326;19.122;2023-03-03T13:25:01;98953.29;;;18.24;42.46
66801;BME280;53703;50.326;19.122;2023-03-03T13:28:01;98953.09;;;18.40;42.06
66801;BME280;53703;50.326;19.122;2023-03-03T13:31:04;98956.86;;;18.38;42.42
66801;BME280;53703;50.326;19.122;2023-03-03T13:34:00;98958.06;;;18.33;42.52
66801;BME280;53703;50.326;19.122;2023-03-03T13:36:58;98958.23;;;18.30;43.41
66801;BME280;53703;50.326;19.122;2023-03-03T13:40:00;98955.83;;;18.32;44.00
66801;BME280;53703;50.326;19.122;2023-03-03T13:43:03;98954.81;;;18.32;43.26
66801;BME280;53703;50.326;19.122;2023-03-03T13:46:05;98954.44;;;18.32;43.32
66801;BME280;53703;50.326;19.122;2023-03-03T13:49:34;98953.38;;;18.21;44.27
66801;BME280;53703;50.326;19.122;2023-03-03T13:52:36;98947.06;;;18.44;43.37
66801;BME280;53703;50.326;19.122;2023-03-03T13:55:36;98945.36;;;18.35;44.70
66801;BME280;53703;50.326;19.122;2023-03-03T13:58:42;98946.49;;;18.24;45.77
66801;BME280;53703;50.326;19.122;2023-03-03T14:01:56;98945.80;;;18.34;46.39
66801;BME280;53703;50.326;19.122;2023-03-03T14:04:59;98951.66;;;18.23;45.64
66801;BME280;53703;50.326;19.122;2023-03-03T14:07:59;98945.77;;;18.28;45.81
66801;BME280;53703;50.326;19.122;2023-03-03T14:11:08;98942.96;;;18.34;46.03
66801;BME280;53703;50.326;19.122;2023-03-03T14:14:35;98943.61;;;18.37;46.20
66801;BME280;53703;50.326;19.122;2023-03-03T14:17:39;98944.42;;;18.26;44.20
66801;BME280;53703;50.326;19.122;2023-03-03T14:20:42;98943.78;;;18.26;44.24
66801;BME280;53703;50.326;19.122;2023-03-03T14:23:50;98939.02;;;18.29;43.51
66801;BME280;53703;50.326;19.122;2023-03-03T14:26:52;98939.39;;;18.31;42.66
66801;BME280;53703;50.326;19.122;2023-03-03T14:29:46;98935.96;;;18.25;42.99
66801;BME280;53703;50.326;19.122;2023-03-03T14:32:40;98939.65;;;18.24;43.78
66801;BME280;53703;50.326;19.122;2023-03-03T14:36:02;98941.57;;;18.23;43.98
66801;BME280;53703;50.326;19.122;2023-03-03T14:38:56;98941.73;;;18.23;43.26
66801;BME280;53703;50.326;19.122;2023-03-03T14:41:50;98940.92;;;18.23;43.35
66801;BME280;53703;50.326;19.122;2023-03-03T14:44:55;98937.48;;;18.18;43.44
66801;BME280;53703;50.326;19.122;2023-03-03T14:47:50;98934.99;;;18.20;43.45
66801;BME280;53703;50.326;19.122;2023-03-03T14:50:49;98934.53;;;18.20;43.06
66801;BME280;53703;50.326;19.122;2023-03-03T14:53:46;98936.17;;;18.19;42.76
66801;BME280;53703;50.326;19.122;2023-03-03T14:57:01;98935.50;;;18.30;42.64
66801;BME280;53703;50.326;19.122;2023-03-03T15:00:07;98941.10;;;18.11;43.75
66801;BME280;53703;50.326;19.122;2023-03-03T15:03:25;98943.42;;;18.21;43.69
66801;BME280;53703;50.326;19.122;2023-03-03T15:06:41;98938.05;;;18.29;42.40
66801;BME280;53703;50.326;19.122;2023-03-03T15:09:37;98929.38;;;18.24;42.22
66801;BME280;53703;50.326;19.122;2023-03-03T15:12:40;98925.33;;;18.21;42.19
66801;BME280;53703;50.326;19.122;2023-03-03T15:15:36;98920.80;;;18.22;42.12
66801;BME280;53703;50.326;19.122;2023-03-03T15:19:25;98918.64;;;18.24;41.86
66801;BME280;53703;50.326;19.122;2023-03-03T15:22:44;98923.43;;;18.26;41.81
66801;BME280;53703;50.326;19.122;2023-03-03T15:25:46;98922.63;;;18.38;41.94
66801;BME280;53703;50.326;19.122;2023-03-03T15:29:00;98922.31;;;18.25;41.65
66801;BME280;53703;50.326;19.122;2023-03-03T15:32:03;98923.52;;;18.29;41.84
66801;BME280;53703;50.326;19.122;2023-03-03T15:35:05;98920.01;;;18.23;41.34
66801;BME280;53703;50.326;19.122;2023-03-03T15:38:19;98922.61;;;18.20;41.21
66801;BME280;53703;50.326;19.122;2023-03-03T15:41:29;98923.67;;;18.21;41.12
66801;BME280;53703;50.326;19.122;2023-03-03T15:44:35;98921.31;;;18.19;41.40
66801;BME280;53703;50.326;19.122;2023-03-03T15:48:03;98929.05;;;18.17;41.68
66801;BME280;53703;50.326;19.122;2023-03-03T15:51:25;98922.86;;;18.23;41.38